sensor_id;sensor_type;location;lat;lon;timestamp;P1;durP1;ratioP1;P2;durP2;ratioP2
13443;SDS011;6794;59.218;18.218;2022-08-24T00:01:05;1.73;;;1.60;;
13443;SDS011;6794;59.218;18.218;2022-08-24T00:03:33;1.60;;;1.50;;
13443;SDS011;6794;59.218;18.218;2022-08-24T00:05:59;1.60;;;1.50;;
13443;SDS011;6794;59.218;18.218;2022-08-24T00:08:25;1.83;;;1.60;;
13443;SDS011;6794;59.218;18.218;2022-08-24T00:10:52;1.77;;;1.60;;
13443;SDS011;6794;59.218;18.218;2022-08-24T00:13:18;1.57;;;1.40;;
13443;SDS011;6794;59.218;18.218;2022-08-24T00:15:44;2.37;;;1.50;;
13443;SDS011;6794;59.218;18.218;2022-08-24T00:18:10;1.97;;;1.50;;
13443;SDS011;6794;59.218;18.218;2022-08-24T00:20:36;2.27;;;1.30;;
13443;SDS011;6794;59.218;18.218;2022-08-24T00:23:03;1.60;;;1.50;;
13443;SDS011;6794;59.218;18.218;2022-08-24T00:25:30;1.93;;;1.37;;
13443;SDS011;6794;59.218;18.218;2022-08-24T00:27:56;2.07;;;1.60;;
13443;SDS011;6794;59.218;18.218;2022-08-24T00:30:22;2.43;;;1.53;;
13443;SDS011;6794;59.218;18.218;2022-08-24T00:32:49;1.50;;;1.40;;
13443;SDS011;6794;59.218;18.218;2022-08-24T00:35:16;2.70;;;1.60;;
13443;SDS011;6794;59.218;18.218;2022-08-24T00:37:43;2.17;;;1.67;;
13443;SDS011;6794;59.218;18.218;2022-08-24T00:40:11;2.47;;;1.80;;
13443;SDS011;6794;59.218;18.218;2022-08-24T00:42:39;3.37;;;1.70;;
13443;SDS011;6794;59.218;18.218;2022-08-24T00:45:06;5.07;;;4.10;;
13443;SDS011;6794;59.218;18.218;2022-08-24T00:47:47;2.63;;;1.60;;
13443;SDS011;6794;59.218;18.218;2022-08-24T00:50:18;2.00;;;1.50;;
13443;SDS011;6794;59.218;18.218;2022-08-24T00:52:48;2.03;;;1.73;;
13443;SDS011;6794;59.218;18.218;2022-08-24T00:55:19;2.77;;;1.60;;
13443;SDS011;6794;59.218;18.218;2022-08-24T00:57:48;2.17;;;1.70;;
13443;SDS011;6794;59.218;18.218;2022-08-24T01:00:20;2.77;;;1.70;;
13443;SDS011;6794;59.218;18.218;2022-08-24T01:02:50;1.60;;;1.50;;
13443;SDS011;6794;59.218;18.218;2022-08-24T01:05:17;2.00;;;1.70;;
13443;SDS011;6794;59.218;18.218;2022-08-24T01:07:44;2.57;;;1.70;;
13443;SDS011;6794;59.218;18.218;2022-08-24T01:10:13;2.90;;;1.40;;
13443;SDS011;6794;59.218;18.218;2022-08-24T01:12:40;2.13;;;1.93;;
13443;SDS011;6794;59.218;18.218;2022-08-24T01:15:08;2.03;;;1.53;;
13443;SDS011;6794;59.218;18.218;2022-08-24T01:17:34;2.20;;;2.00;;
13443;SDS011;6794;59.218;18.218;2022-08-24T01:20:20;3.23;;;1.70;;
13443;SDS011;6794;59.218;18.218;2022-08-24T01:23:05;1.70;;;1.60;;
13443;SDS011;6794;59.218;18.218;2022-08-24T01:25:32;2.20;;;1.50;;
13443;SDS011;6794;59.218;18.218;2022-08-24T01:28:00;1.70;;;1.60;;
13443;SDS011;6794;59.218;18.218;2022-08-24T01:30:28;1.80;;;1.70;;
13443;SDS011;6794;59.218;18.218;2022-08-24T01:35:20;4.10;;;1.70;;
13443;SDS011;6794;59.218;18.218;2022-08-24T01:37:46;1.80;;;1.70;;
13443;SDS011;6794;59.218;18.218;2022-08-24T01:40:13;2.77;;;2.10;;
13443;SDS011;6794;59.218;18.218;2022-08-24T01:42:39;2.87;;;2.50;;
13443;SDS011;6794;59.218;18.218;2022-08-24T01:45:05;2.00;;;1.73;;
13443;SDS011;6794;59.218;18.218;2022-08-24T01:47:32;2.30;;;1.87;;
13443;SDS011;6794;59.218;18.218;2022-08-24T01:49:58;3.07;;;2.40;;
13443;SDS011;6794;59.218;18.218;2022-08-24T01:52:26;3.27;;;2.50;;
13443;SDS011;6794;59.218;18.218;2022-08-24T01:54:52;4.57;;;1.83;;
13443;SDS011;6794;59.218;18.218;2022-08-24T01:57:18;3.67;;;1.87;;
13443;SDS011;6794;59.218;18.218;2022-08-24T01:59:44;2.50;;;1.63;;
13443;SDS011;6794;59.218;18.218;2022-08-24T02:02:12;2.03;;;1.57;;
13443;SDS011;6794;59.218;18.218;2022-08-24T02:04:40;1.70;;;1.60;;
13443;SDS011;6794;59.218;18.218;2022-08-24T02:07:06;4.10;;;1.87;;
13443;SDS011;6794;59.218;18.218;2022-08-24T02:09:33;2.50;;;1.80;;
13443;SDS011;6794;59.218;18.218;2022-08-24T02:12:00;2.73;;;1.60;;
13443;SDS011;6794;59.218;18.218;2022-08-24T02:14:26;2.23;;;1.53;;
13443;SDS011;6794;59.218;18.218;2022-08-24T02:16:52;1.63;;;1.53;;
13443;SDS011;6794;59.218;18.218;2022-08-24T02:19:18;3.00;;;1.63;;
13443;SDS011;6794;59.218;18.218;2022-08-24T02:21:44;2.10;;;2.00;;
13443;SDS011;6794;59.218;18.218;2022-08-24T02:24:10;1.73;;;1.63;;
13443;SDS011;6794;59.218;18.218;2022-08-24T02:26:37;2.27;;;1.33;;
13443;SDS011;6794;59.218;18.218;2022-08-24T02:29:03;1.33;;;1.23;;
13443;SDS011;6794;59.218;18.218;2022-08-24T02:31:29;2.93;;;1.70;;
13443;SDS011;6794;59.218;18.218;2022-08-24T02:33:55;2.10;;;1.50;;
13443;SDS011;6794;59.218;18.218;2022-08-24T02:36:21;2.00;;;1.60;;
13443;SDS011;6794;59.218;18.218;2022-08-24T02:38:48;2.43;;;1.50;;
13443;SDS011;6794;59.218;18.218;2022-08-24T02:41:14;1.60;;;1.50;;
13443;SDS011;6794;59.218;18.218;2022-08-24T02:43:40;3.73;;;1.70;;
13443;SDS011;6794;59.218;18.218;2022-08-24T02:46:06;1.53;;;1.43;;
13443;SDS011;6794;59.218;18.218;2022-08-24T02:48:32;3.03;;;1.80;;
13443;SDS011;6794;59.218;18.218;2022-08-24T02:50:58;2.50;;;1.80;;
13443;SDS011;6794;59.218;18.218;2022-08-24T02:53:25;2.13;;;1.40;;
13443;SDS011;6794;59.218;18.218;2022-08-24T02:55:51;2.00;;;1.60;;
13443;SDS011;6794;59.218;18.218;2022-08-24T02:58:17;3.20;;;1.70;;
13443;SDS011;6794;59.218;18.218;2022-08-24T03:00:44;1.70;;;1.60;;
13443;SDS011;6794;59.218;18.218;2022-08-24T03:03:10;1.87;;;1.77;;
13443;SDS011;6794;59.218;18.218;2022-08-24T03:05:37;2.80;;;1.50;;
13443;SDS011;6794;59.218;18.218;2022-08-24T03:08:03;1.63;;;1.20;;
13443;SDS011;6794;59.218;18.218;2022-08-24T03:10:30;1.57;;;1.27;;
13443;SDS011;6794;59.218;18.218;2022-08-24T03:12:56;1.40;;;1.30;;
13443;SDS011;6794;59.218;18.218;2022-08-24T03:15:25;1.70;;;1.53;;
13443;SDS011;6794;59.218;18.218;2022-08-24T03:17:51;1.87;;;1.73;;
13443;SDS011;6794;59.218;18.218;2022-08-24T03:20:18;1.87;;;1.77;;
13443;SDS011;6794;59.218;18.218;2022-08-24T03:22:45;2.17;;;1.80;;
13443;SDS011;6794;59.218;18.218;2022-08-24T03:25:11;1.50;;;1.40;;
13443;SDS011;6794;59.218;18.218;2022-08-24T03:27:38;1.60;;;1.50;;
13443;SDS011;6794;59.218;18.218;2022-08-24T03:30:04;1.60;;;1.40;;
13443;SDS011;6794;59.218;18.218;2022-08-24T03:32:31;2.73;;;1.80;;
13443;SDS011;6794;59.218;18.218;2022-08-24T03:34:57;1.97;;;1.77;;
13443;SDS011;6794;59.218;18.218;2022-08-24T03:37:23;3.03;;;1.90;;
13443;SDS011;6794;59.218;18.218;2022-08-24T03:39:49;1.80;;;1.60;;
13443;SDS011;6794;59.218;18.218;2022-08-24T03:42:15;2.17;;;1.83;;
13443;SDS011;6794;59.218;18.218;2022-08-24T03:44:42;2.47;;;1.87;;
13443;SDS011;6794;59.218;18.218;2022-08-24T03:47:08;1.70;;;1.47;;
13443;SDS011;6794;59.218;18.218;2022-08-24T03:49:35;2.33;;;1.80;;
13443;SDS011;6794;59.218;18.218;2022-08-24T03:52:01;3.40;;;1.60;;
13443;SDS011;6794;59.218;18.218;2022-08-24T03:54:27;1.70;;;1.60;;
13443;SDS011;6794;59.218;18.218;2022-08-24T03:56:54;1.80;;;1.70;;
13443;SDS011;6794;59.218;18.218;2022-08-24T03:59:20;1.90;;;1.70;;
13443;SDS011;6794;59.218;18.218;2022-08-24T04:01:46;1.93;;;1.60;;
13443;SDS011;6794;59.218;18.218;2022-08-24T04:04:12;1.50;;;1.40;;
13443;SDS011;6794;59.218;18.218;2022-08-24T04:06:38;2.13;;;1.60;;
13443;SDS011;6794;59.218;18.218;2022-08-24T04:09:08;2.40;;;1.70;;
13443;SDS011;6794;59.218;18.218;2022-08-24T04:11:34;1.90;;;1.70;;
13443;SDS011;6794;59.218;18.218;2022-08-24T04:14:00;2.23;;;1.60;;
13443;SDS011;6794;59.218;18.218;2022-08-24T04:16:27;2.47;;;1.40;;
13443;SDS011;6794;59.218;18.218;2022-08-24T04:18:53;2.17;;;1.83;;
13443;SDS011;6794;59.218;18.218;2022-08-24T04:21:22;3.03;;;1.50;;
13443;SDS011;6794;59.218;18.218;2022-08-24T04:23:49;1.60;;;1.50;;
13443;SDS011;6794;59.218;18.218;2022-08-24T04:26:16;1.50;;;1.40;;
13443;SDS011;6794;59.218;18.218;2022-08-24T04:28:43;1.57;;;1.47;;
13443;SDS011;6794;59.218;18.218;2022-08-24T04:31:09;3.23;;;1.77;;
13443;SDS011;6794;59.218;18.218;2022-08-24T04:33:35;2.47;;;1.60;;
13443;SDS011;6794;59.218;18.218;2022-08-24T04:36:04;2.60;;;1.50;;
13443;SDS011;6794;59.218;18.218;2022-08-24T04:38:30;1.60;;;1.50;;
13443;SDS011;6794;59.218;18.218;2022-08-24T04:40:56;2.07;;;1.87;;
13443;SDS011;6794;59.218;18.218;2022-08-24T04:43:22;1.93;;;1.63;;
13443;SDS011;6794;59.218;18.218;2022-08-24T04:45:50;3.03;;;1.43;;
13443;SDS011;6794;59.218;18.218;2022-08-24T04:48:16;1.53;;;1.43;;
13443;SDS011;6794;59.218;18.218;2022-08-24T04:50:43;1.50;;;1.40;;
13443;SDS011;6794;59.218;18.218;2022-08-24T04:53:10;3.33;;;1.77;;
13443;SDS011;6794;59.218;18.218;2022-08-24T04:55:44;2.43;;;1.80;;
13443;SDS011;6794;59.218;18.218;2022-08-24T04:58:11;1.60;;;1.27;;
13443;SDS011;6794;59.218;18.218;2022-08-24T05:00:38;1.80;;;1.30;;
13443;SDS011;6794;59.218;18.218;2022-08-24T05:03:04;1.87;;;1.50;;
13443;SDS011;6794;59.218;18.218;2022-08-24T05:05:30;2.33;;;1.50;;
13443;SDS011;6794;59.218;18.218;2022-08-24T05:07:56;3.23;;;1.47;;
13443;SDS011;6794;59.218;18.218;2022-08-24T05:10:22;2.10;;;1.53;;
13443;SDS011;6794;59.218;18.218;2022-08-24T05:12:48;1.63;;;1.43;;
13443;SDS011;6794;59.218;18.218;2022-08-24T05:15:15;1.40;;;1.23;;
13443;SDS011;6794;59.218;18.218;2022-08-24T05:17:41;2.00;;;1.40;;
13443;SDS011;6794;59.218;18.218;2022-08-24T05:20:10;2.50;;;1.37;;
13443;SDS011;6794;59.218;18.218;2022-08-24T05:22:36;2.30;;;1.40;;
13443;SDS011;6794;59.218;18.218;2022-08-24T05:25:03;2.17;;;1.53;;
13443;SDS011;6794;59.218;18.218;2022-08-24T05:27:29;3.93;;;2.97;;
13443;SDS011;6794;59.218;18.218;2022-08-24T05:29:55;2.77;;;1.23;;
13443;SDS011;6794;59.218;18.218;2022-08-24T05:32:21;1.57;;;1.33;;
13443;SDS011;6794;59.218;18.218;2022-08-24T05:34:48;1.77;;;0.93;;
13443;SDS011;6794;59.218;18.218;2022-08-24T05:37:14;3.17;;;1.27;;
13443;SDS011;6794;59.218;18.218;2022-08-24T05:39:40;2.67;;;0.90;;
13443;SDS011;6794;59.218;18.218;2022-08-24T05:42:06;2.20;;;1.40;;
13443;SDS011;6794;59.218;18.218;2022-08-24T05:44:32;0.87;;;0.87;;
13443;SDS011;6794;59.218;18.218;2022-08-24T05:46:58;3.63;;;1.10;;
13443;SDS011;6794;59.218;18.218;2022-08-24T05:49:25;1.67;;;1.10;;
13443;SDS011;6794;59.218;18.218;2022-08-24T05:51:52;1.93;;;1.00;;
13443;SDS011;6794;59.218;18.218;2022-08-24T05:54:19;1.20;;;1.10;;
13443;SDS011;6794;59.218;18.218;2022-08-24T05:56:46;2.40;;;0.90;;
13443;SDS011;6794;59.218;18.218;2022-08-24T05:59:13;1.17;;;0.90;;
13443;SDS011;6794;59.218;18.218;2022-08-24T06:01:41;1.73;;;0.97;;
13443;SDS011;6794;59.218;18.218;2022-08-24T06:04:07;1.73;;;1.10;;
13443;SDS011;6794;59.218;18.218;2022-08-24T06:06:33;2.43;;;1.00;;
13443;SDS011;6794;59.218;18.218;2022-08-24T06:09:00;0.70;;;0.70;;
13443;SDS011;6794;59.218;18.218;2022-08-24T06:11:28;1.73;;;0.90;;
13443;SDS011;6794;59.218;18.218;2022-08-24T06:13:56;2.03;;;0.90;;
13443;SDS011;6794;59.218;18.218;2022-08-24T06:16:22;1.23;;;1.13;;
13443;SDS011;6794;59.218;18.218;2022-08-24T06:18:48;1.27;;;0.90;;
13443;SDS011;6794;59.218;18.218;2022-08-24T06:21:15;2.13;;;0.90;;
13443;SDS011;6794;59.218;18.218;2022-08-24T06:23:42;0.77;;;0.70;;
13443;SDS011;6794;59.218;18.218;2022-08-24T06:26:09;1.50;;;0.90;;
13443;SDS011;6794;59.218;18.218;2022-08-24T06:28:54;1.33;;;0.90;;
13443;SDS011;6794;59.218;18.218;2022-08-24T06:31:21;2.43;;;1.00;;
13443;SDS011;6794;59.218;18.218;2022-08-24T06:33:48;1.30;;;0.80;;
13443;SDS011;6794;59.218;18.218;2022-08-24T06:36:14;0.77;;;0.73;;
13443;SDS011;6794;59.218;18.218;2022-08-24T06:38:40;1.50;;;1.10;;
13443;SDS011;6794;59.218;18.218;2022-08-24T06:41:07;1.13;;;1.00;;
13443;SDS011;6794;59.218;18.218;2022-08-24T06:43:34;1.03;;;0.90;;
13443;SDS011;6794;59.218;18.218;2022-08-24T06:46:00;1.10;;;1.07;;
13443;SDS011;6794;59.218;18.218;2022-08-24T06:48:26;1.00;;;0.90;;
13443;SDS011;6794;59.218;18.218;2022-08-24T06:50:54;2.73;;;0.90;;
13443;SDS011;6794;59.218;18.218;2022-08-24T06:53:20;1.83;;;0.83;;
13443;SDS011;6794;59.218;18.218;2022-08-24T06:55:56;1.00;;;0.90;;
13443;SDS011;6794;59.218;18.218;2022-08-24T06:58:23;1.00;;;0.80;;
13443;SDS011;6794;59.218;18.218;2022-08-24T07:00:50;1.20;;;0.90;;
13443;SDS011;6794;59.218;18.218;2022-08-24T07:03:16;2.60;;;1.20;;
13443;SDS011;6794;59.218;18.218;2022-08-24T07:05:49;3.20;;;1.10;;
13443;SDS011;6794;59.218;18.218;2022-08-24T07:08:16;1.03;;;0.90;;
13443;SDS011;6794;59.218;18.218;2022-08-24T07:10:42;2.40;;;1.20;;
13443;SDS011;6794;59.218;18.218;2022-08-24T07:13:08;0.93;;;0.93;;
13443;SDS011;6794;59.218;18.218;2022-08-24T07:15:35;1.10;;;0.90;;
13443;SDS011;6794;59.218;18.218;2022-08-24T07:18:01;1.57;;;1.00;;
13443;SDS011;6794;59.218;18.218;2022-08-24T07:20:30;1.53;;;1.00;;
13443;SDS011;6794;59.218;18.218;2022-08-24T07:22:56;1.60;;;0.97;;
13443;SDS011;6794;59.218;18.218;2022-08-24T07:25:22;2.93;;;1.10;;
13443;SDS011;6794;59.218;18.218;2022-08-24T07:27:49;2.63;;;1.00;;
13443;SDS011;6794;59.218;18.218;2022-08-24T07:30:15;1.13;;;0.90;;
13443;SDS011;6794;59.218;18.218;2022-08-24T07:32:41;1.87;;;1.00;;
13443;SDS011;6794;59.218;18.218;2022-08-24T07:35:08;1.13;;;0.97;;
13443;SDS011;6794;59.218;18.218;2022-08-24T07:37:34;1.10;;;0.80;;
13443;SDS011;6794;59.218;18.218;2022-08-24T07:40:00;1.30;;;0.90;;
13443;SDS011;6794;59.218;18.218;2022-08-24T07:42:26;1.23;;;1.00;;
13443;SDS011;6794;59.218;18.218;2022-08-24T07:44:52;3.63;;;1.00;;
13443;SDS011;6794;59.218;18.218;2022-08-24T07:47:18;1.17;;;0.93;;
13443;SDS011;6794;59.218;18.218;2022-08-24T07:49:44;1.83;;;0.80;;
13443;SDS011;6794;59.218;18.218;2022-08-24T07:52:10;1.33;;;0.77;;
13443;SDS011;6794;59.218;18.218;2022-08-24T07:54:37;1.80;;;0.90;;
13443;SDS011;6794;59.218;18.218;2022-08-24T07:57:03;1.30;;;0.83;;
13443;SDS011;6794;59.218;18.218;2022-08-24T07:59:30;1.53;;;0.77;;
13443;SDS011;6794;59.218;18.218;2022-08-24T08:01:57;1.00;;;0.90;;
13443;SDS011;6794;59.218;18.218;2022-08-24T08:04:23;1.70;;;0.90;;
13443;SDS011;6794;59.218;18.218;2022-08-24T08:06:50;1.60;;;0.90;;
13443;SDS011;6794;59.218;18.218;2022-08-24T08:09:16;1.20;;;1.10;;
13443;SDS011;6794;59.218;18.218;2022-08-24T08:11:42;1.87;;;0.90;;
13443;SDS011;6794;59.218;18.218;2022-08-24T08:14:09;0.93;;;0.80;;
13443;SDS011;6794;59.218;18.218;2022-08-24T08:16:35;1.07;;;0.90;;
13443;SDS011;6794;59.218;18.218;2022-08-24T08:19:03;0.70;;;0.70;;
13443;SDS011;6794;59.218;18.218;2022-08-24T08:21:29;0.80;;;0.80;;
13443;SDS011;6794;59.218;18.218;2022-08-24T08:24:14;1.30;;;0.83;;
13443;SDS011;6794;59.218;18.218;2022-08-24T08:26:44;2.10;;;0.90;;
13443;SDS011;6794;59.218;18.218;2022-08-24T08:29:11;1.20;;;0.90;;
13443;SDS011;6794;59.218;18.218;2022-08-24T08:31:37;1.23;;;0.80;;
13443;SDS011;6794;59.218;18.218;2022-08-24T08:34:04;2.00;;;0.80;;
13443;SDS011;6794;59.218;18.218;2022-08-24T08:36:30;1.73;;;0.90;;
13443;SDS011;6794;59.218;18.218;2022-08-24T08:38:57;3.50;;;0.87;;
13443;SDS011;6794;59.218;18.218;2022-08-24T08:43:58;1.93;;;0.93;;
13443;SDS011;6794;59.218;18.218;2022-08-24T08:49:03;1.80;;;1.10;;
13443;SDS011;6794;59.218;18.218;2022-08-24T08:54:10;0.93;;;0.80;;
13443;SDS011;6794;59.218;18.218;2022-08-24T09:04:07;0.70;;;0.70;;
13443;SDS011;6794;59.218;18.218;2022-08-24T09:11:59;1.10;;;0.90;;
13443;SDS011;6794;59.218;18.218;2022-08-24T09:14:53;1.50;;;1.10;;
13443;SDS011;6794;59.218;18.218;2022-08-24T09:17:27;0.97;;;0.90;;
13443;SDS011;6794;59.218;18.218;2022-08-24T09:22:33;1.90;;;0.80;;
13443;SDS011;6794;59.218;18.218;2022-08-24T09:25:36;2.47;;;0.90;;
13443;SDS011;6794;59.218;18.218;2022-08-24T09:33:17;1.97;;;0.90;;
13443;SDS011;6794;59.218;18.218;2022-08-24T09:38:28;0.77;;;0.77;;
13443;SDS011;6794;59.218;18.218;2022-08-24T09:43:45;2.40;;;1.00;;
13443;SDS011;6794;59.218;18.218;2022-08-24T09:59:28;1.07;;;0.97;;
13443;SDS011;6794;59.218;18.218;2022-08-24T10:12:06;2.60;;;0.87;;
13443;SDS011;6794;59.218;18.218;2022-08-24T10:17:16;1.33;;;0.90;;
13443;SDS011;6794;59.218;18.218;2022-08-24T10:27:50;2.17;;;0.80;;
13443;SDS011;6794;59.218;18.218;2022-08-24T10:31:05;1.30;;;0.90;;
13443;SDS011;6794;59.218;18.218;2022-08-24T10:35:49;1.90;;;0.80;;
13443;SDS011;6794;59.218;18.218;2022-08-24T10:53:58;1.27;;;0.87;;
13443;SDS011;6794;59.218;18.218;2022-08-24T11:06:22;1.20;;;1.00;;
13443;SDS011;6794;59.218;18.218;2022-08-24T11:11:45;0.87;;;0.87;;
13443;SDS011;6794;59.218;18.218;2022-08-24T11:16:42;1.43;;;0.90;;
13443;SDS011;6794;59.218;18.218;2022-08-24T11:19:12;3.43;;;1.00;;
13443;SDS011;6794;59.218;18.218;2022-08-24T11:21:49;0.97;;;0.80;;
13443;SDS011;6794;59.218;18.218;2022-08-24T11:26:58;2.67;;;0.90;;
13443;SDS011;6794;59.218;18.218;2022-08-24T11:32:09;1.37;;;0.80;;
13443;SDS011;6794;59.218;18.218;2022-08-24T11:34:49;1.60;;;0.80;;
13443;SDS011;6794;59.218;18.218;2022-08-24T11:37:15;1.60;;;0.80;;
13443;SDS011;6794;59.218;18.218;2022-08-24T11:39:41;0.90;;;0.70;;
13443;SDS011;6794;59.218;18.218;2022-08-24T11:47:08;0.80;;;0.80;;
13443;SDS011;6794;59.218;18.218;2022-08-24T11:54:33;0.60;;;0.60;;
13443;SDS011;6794;59.218;18.218;2022-08-24T11:57:10;1.07;;;0.97;;
13443;SDS011;6794;59.218;18.218;2022-08-24T12:02:07;0.87;;;0.60;;
13443;SDS011;6794;59.218;18.218;2022-08-24T12:07:16;1.20;;;0.80;;
13443;SDS011;6794;59.218;18.218;2022-08-24T12:09:50;0.67;;;0.67;;
13443;SDS011;6794;59.218;18.218;2022-08-24T12:18:02;1.60;;;0.80;;
13443;SDS011;6794;59.218;18.218;2022-08-24T12:20:40;0.70;;;0.70;;
13443;SDS011;6794;59.218;18.218;2022-08-24T12:23:16;0.63;;;0.63;;
13443;SDS011;6794;59.218;18.218;2022-08-24T12:25:45;1.00;;;1.00;;
13443;SDS011;6794;59.218;18.218;2022-08-24T12:28:33;1.53;;;0.80;;
13443;SDS011;6794;59.218;18.218;2022-08-24T12:31:07;1.33;;;0.87;;
13443;SDS011;6794;59.218;18.218;2022-08-24T12:33:34;0.70;;;0.70;;
13443;SDS011;6794;59.218;18.218;2022-08-24T12:36:02;0.93;;;0.93;;
13443;SDS011;6794;59.218;18.218;2022-08-24T12:38:32;0.90;;;0.90;;
13443;SDS011;6794;59.218;18.218;2022-08-24T12:41:04;1.10;;;1.00;;
13443;SDS011;6794;59.218;18.218;2022-08-24T12:43:37;0.83;;;0.83;;
13443;SDS011;6794;59.218;18.218;2022-08-24T12:46:04;0.77;;;0.77;;
13443;SDS011;6794;59.218;18.218;2022-08-24T12:51:24;0.70;;;0.70;;
13443;SDS011;6794;59.218;18.218;2022-08-24T12:58:59;1.20;;;0.70;;
13443;SDS011;6794;59.218;18.218;2022-08-24T13:01:27;1.57;;;0.90;;
13443;SDS011;6794;59.218;18.218;2022-08-24T13:04:05;0.63;;;0.63;;
13443;SDS011;6794;59.218;18.218;2022-08-24T13:06:50;0.93;;;0.93;;
13443;SDS011;6794;59.218;18.218;2022-08-24T13:11:53;0.70;;;0.70;;
13443;SDS011;6794;59.218;18.218;2022-08-24T13:14:22;0.70;;;0.70;;
13443;SDS011;6794;59.218;18.218;2022-08-24T13:16:50;0.80;;;0.80;;
13443;SDS011;6794;59.218;18.218;2022-08-24T13:19:30;1.03;;;0.80;;
13443;SDS011;6794;59.218;18.218;2022-08-24T13:22:44;1.17;;;1.07;;
13443;SDS011;6794;59.218;18.218;2022-08-24T13:24:47;1.43;;;0.70;;
13443;SDS011;6794;59.218;18.218;2022-08-24T13:30:27;0.60;;;0.60;;
13443;SDS011;6794;59.218;18.218;2022-08-24T13:32:30;1.60;;;0.80;;
13443;SDS011;6794;59.218;18.218;2022-08-24T13:34:57;1.93;;;0.80;;
13443;SDS011;6794;59.218;18.218;2022-08-24T13:37:25;0.73;;;0.70;;
13443;SDS011;6794;59.218;18.218;2022-08-24T14:00:39;0.97;;;0.87;;
13443;SDS011;6794;59.218;18.218;2022-08-24T14:06:02;0.87;;;0.83;;
13443;SDS011;6794;59.218;18.218;2022-08-24T14:08:51;0.73;;;0.73;;
13443;SDS011;6794;59.218;18.218;2022-08-24T14:24:44;1.20;;;0.70;;
13443;SDS011;6794;59.218;18.218;2022-08-24T14:30:42;0.73;;;0.70;;
13443;SDS011;6794;59.218;18.218;2022-08-24T14:45:21;1.17;;;0.90;;
13443;SDS011;6794;59.218;18.218;2022-08-24T14:47:57;0.83;;;0.70;;
13443;SDS011;6794;59.218;18.218;2022-08-24T14:50:39;0.70;;;0.70;;
13443;SDS011;6794;59.218;18.218;2022-08-24T14:55:54;0.70;;;0.70;;
13443;SDS011;6794;59.218;18.218;2022-08-24T15:00:55;0.60;;;0.60;;
13443;SDS011;6794;59.218;18.218;2022-08-24T15:03:40;1.03;;;0.70;;
13443;SDS011;6794;59.218;18.218;2022-08-24T15:06:15;1.20;;;0.90;;
13443;SDS011;6794;59.218;18.218;2022-08-24T15:08:44;1.13;;;0.70;;
13443;SDS011;6794;59.218;18.218;2022-08-24T15:11:15;0.70;;;0.70;;
13443;SDS011;6794;59.218;18.218;2022-08-24T15:13:44;0.70;;;0.70;;
13443;SDS011;6794;59.218;18.218;2022-08-24T15:16:14;1.20;;;0.70;;
13443;SDS011;6794;59.218;18.218;2022-08-24T15:29:26;1.13;;;0.60;;
13443;SDS011;6794;59.218;18.218;2022-08-24T15:36:58;1.73;;;0.77;;
13443;SDS011;6794;59.218;18.218;2022-08-24T15:39:26;0.63;;;0.63;;
13443;SDS011;6794;59.218;18.218;2022-08-24T15:41:52;0.93;;;0.70;;
13443;SDS011;6794;59.218;18.218;2022-08-24T15:44:20;0.87;;;0.80;;
13443;SDS011;6794;59.218;18.218;2022-08-24T15:46:54;0.87;;;0.73;;
13443;SDS011;6794;59.218;18.218;2022-08-24T15:49:26;1.50;;;0.70;;
13443;SDS011;6794;59.218;18.218;2022-08-24T15:51:57;1.30;;;0.80;;
13443;SDS011;6794;59.218;18.218;2022-08-24T15:57:03;2.37;;;0.73;;
13443;SDS011;6794;59.218;18.218;2022-08-24T16:07:30;2.50;;;0.97;;
13443;SDS011;6794;59.218;18.218;2022-08-24T16:10:03;2.43;;;0.70;;
13443;SDS011;6794;59.218;18.218;2022-08-24T16:12:29;0.67;;;0.67;;
13443;SDS011;6794;59.218;18.218;2022-08-24T16:15:06;0.77;;;0.70;;
13443;SDS011;6794;59.218;18.218;2022-08-24T16:17:35;0.87;;;0.87;;
13443;SDS011;6794;59.218;18.218;2022-08-24T16:20:04;0.77;;;0.77;;
13443;SDS011;6794;59.218;18.218;2022-08-24T16:22:33;0.67;;;0.67;;
13443;SDS011;6794;59.218;18.218;2022-08-24T16:28:09;1.13;;;0.80;;
13443;SDS011;6794;59.218;18.218;2022-08-24T16:36:05;0.63;;;0.60;;
13443;SDS011;6794;59.218;18.218;2022-08-24T16:38:32;1.33;;;0.80;;
13443;SDS011;6794;59.218;18.218;2022-08-24T16:40:59;1.47;;;0.60;;
13443;SDS011;6794;59.218;18.218;2022-08-24T16:43:26;0.50;;;0.50;;
13443;SDS011;6794;59.218;18.218;2022-08-24T16:45:53;0.57;;;0.57;;
13443;SDS011;6794;59.218;18.218;2022-08-24T16:48:19;1.37;;;0.70;;
13443;SDS011;6794;59.218;18.218;2022-08-24T16:50:45;1.27;;;0.80;;
13443;SDS011;6794;59.218;18.218;2022-08-24T16:53:11;0.80;;;0.80;;
13443;SDS011;6794;59.218;18.218;2022-08-24T16:55:38;0.77;;;0.77;;
13443;SDS011;6794;59.218;18.218;2022-08-24T16:58:04;1.93;;;1.00;;
13443;SDS011;6794;59.218;18.218;2022-08-24T17:00:30;0.60;;;0.60;;
13443;SDS011;6794;59.218;18.218;2022-08-24T17:02:57;0.73;;;0.73;;
13443;SDS011;6794;59.218;18.218;2022-08-24T17:05:23;0.70;;;0.70;;
13443;SDS011;6794;59.218;18.218;2022-08-24T17:07:49;1.67;;;0.87;;
13443;SDS011;6794;59.218;18.218;2022-08-24T17:10:16;0.80;;;0.80;;
13443;SDS011;6794;59.218;18.218;2022-08-24T17:12:43;1.33;;;0.60;;
13443;SDS011;6794;59.218;18.218;2022-08-24T17:15:09;1.47;;;0.70;;
13443;SDS011;6794;59.218;18.218;2022-08-24T17:17:36;1.03;;;0.90;;
13443;SDS011;6794;59.218;18.218;2022-08-24T17:20:03;1.33;;;0.60;;
13443;SDS011;6794;59.218;18.218;2022-08-24T17:22:30;2.37;;;0.80;;
13443;SDS011;6794;59.218;18.218;2022-08-24T17:24:57;1.27;;;0.60;;
13443;SDS011;6794;59.218;18.218;2022-08-24T17:27:25;1.50;;;1.00;;
13443;SDS011;6794;59.218;18.218;2022-08-24T17:29:53;0.40;;;0.40;;
13443;SDS011;6794;59.218;18.218;2022-08-24T17:32:19;0.83;;;0.70;;
13443;SDS011;6794;59.218;18.218;2022-08-24T17:34:45;0.60;;;0.53;;
13443;SDS011;6794;59.218;18.218;2022-08-24T17:37:11;1.73;;;0.60;;
13443;SDS011;6794;59.218;18.218;2022-08-24T17:39:37;1.20;;;0.60;;
13443;SDS011;6794;59.218;18.218;2022-08-24T17:42:03;1.40;;;0.70;;
13443;SDS011;6794;59.218;18.218;2022-08-24T17:44:30;1.97;;;0.70;;
13443;SDS011;6794;59.218;18.218;2022-08-24T17:47:00;0.80;;;0.80;;
13443;SDS011;6794;59.218;18.218;2022-08-24T17:49:27;0.90;;;0.90;;
13443;SDS011;6794;59.218;18.218;2022-08-24T17:51:54;1.27;;;0.90;;
13443;SDS011;6794;59.218;18.218;2022-08-24T17:54:20;2.47;;;0.80;;
13443;SDS011;6794;59.218;18.218;2022-08-24T17:56:46;1.10;;;1.00;;
13443;SDS011;6794;59.218;18.218;2022-08-24T17:59:15;0.80;;;0.80;;
13443;SDS011;6794;59.218;18.218;2022-08-24T18:01:46;1.77;;;0.90;;
13443;SDS011;6794;59.218;18.218;2022-08-24T18:04:14;0.93;;;0.87;;
13443;SDS011;6794;59.218;18.218;2022-08-24T18:06:41;0.70;;;0.70;;
13443;SDS011;6794;59.218;18.218;2022-08-24T18:09:09;1.73;;;0.80;;
13443;SDS011;6794;59.218;18.218;2022-08-24T18:11:37;0.67;;;0.60;;
13443;SDS011;6794;59.218;18.218;2022-08-24T18:14:03;0.90;;;0.80;;
13443;SDS011;6794;59.218;18.218;2022-08-24T18:16:29;0.80;;;0.77;;
13443;SDS011;6794;59.218;18.218;2022-08-24T18:18:56;2.30;;;0.80;;
13443;SDS011;6794;59.218;18.218;2022-08-24T18:21:22;2.00;;;0.70;;
13443;SDS011;6794;59.218;18.218;2022-08-24T18:23:48;1.53;;;0.90;;
13443;SDS011;6794;59.218;18.218;2022-08-24T18:26:18;1.73;;;0.83;;
13443;SDS011;6794;59.218;18.218;2022-08-24T18:28:45;1.50;;;0.87;;
13443;SDS011;6794;59.218;18.218;2022-08-24T18:31:12;1.60;;;0.63;;
13443;SDS011;6794;59.218;18.218;2022-08-24T18:33:38;2.43;;;0.70;;
13443;SDS011;6794;59.218;18.218;2022-08-24T18:36:04;0.67;;;0.67;;
13443;SDS011;6794;59.218;18.218;2022-08-24T18:38:30;1.83;;;0.77;;
13443;SDS011;6794;59.218;18.218;2022-08-24T18:40:58;0.87;;;0.60;;
13443;SDS011;6794;59.218;18.218;2022-08-24T18:43:25;1.47;;;0.80;;
13443;SDS011;6794;59.218;18.218;2022-08-24T18:45:51;1.37;;;0.80;;
13443;SDS011;6794;59.218;18.218;2022-08-24T18:48:18;0.60;;;0.60;;
13443;SDS011;6794;59.218;18.218;2022-08-24T18:50:45;0.63;;;0.63;;